Prairie, Alabama
Current Conditions -  °F | °C
As of 6:55 PM on Wednesday 17 Dec 2014 (Local Time) from KSEM Reporting Station
Clear Clear  
Wind Chill: 44°   Ceiling: Unl
Heat Index: 46°   Visibility: 10mi
Dew Point: 37°   Wind: 6mph
Humidity: 71%   Direction: 30°NNE
Pressure: 30.22"   Gusts: NA
Location:  32.137°N, 87.4653°W
Report Text: KSEM 180055Z AUTO 03005KT 10SM CLR 08/03 A3022 RMK AO2
Loading
Personal Weather Stations






























Interactive Weather Map New forecast layout! Learn more

10-Day Weather Forecast

Advertisements
Track Severe Weather on mobile